createdAt,value
2023-03-03T00:01:26.866Z,99320.16
2023-03-03T00:04:12.416Z,99308.28
2023-03-03T00:06:57.644Z,99314.25
2023-03-03T00:09:42.886Z,99309.53
2023-03-03T00:12:30.789Z,99312.72
2023-03-03T00:15:25.513Z,99312.34
2023-03-03T00:18:45.436Z,99320.28
2023-03-03T00:21:33.850Z,99324.28
2023-03-03T00:24:25.470Z,99320.28
2023-03-03T00:27:36.017Z,99321.06
2023-03-03T00:30:26.778Z,99324.28
2023-03-03T00:33:36.529Z,99328.22
2023-03-03T00:36:28.900Z,99323.47
2023-03-03T00:39:25.374Z,99324.69
2023-03-03T00:42:14.008Z,99317.13
2023-03-03T00:45:00.981Z,99316.34
2023-03-03T00:47:46.200Z,99319.53
2023-03-03T00:50:34.362Z,99326.69
2023-03-03T00:53:21.977Z,99317.53
2023-03-03T00:56:07.379Z,99321.13
2023-03-03T00:58:52.574Z,99321.53
2023-03-03T01:01:40.308Z,99318.75
2023-03-03T01:04:25.597Z,99320.75
2023-03-03T01:07:10.760Z,99313.59
2023-03-03T01:09:55.953Z,99327.50
2023-03-03T01:12:41.471Z,99323.53
2023-03-03T01:15:27.135Z,99325.94
2023-03-03T01:18:12.990Z,99332.25
2023-03-03T01:20:58.174Z,99336.25
2023-03-03T01:23:43.577Z,99334.25
2023-03-03T01:26:28.812Z,99333.47
2023-03-03T01:29:14.112Z,99335.44
2023-03-03T01:31:59.335Z,99332.66
2023-03-03T01:34:45.007Z,99332.66
2023-03-03T01:37:30.427Z,99343.00
2023-03-03T01:40:21.685Z,99333.88
2023-03-03T01:43:07.100Z,99334.66
2023-03-03T01:45:53.867Z,99343.44
2023-03-03T01:48:44.067Z,99328.75
2023-03-03T01:51:33.760Z,99339.84
2023-03-03T01:54:28.748Z,99337.88
2023-03-03T01:57:18.453Z,99320.41
2023-03-03T02:00:06.046Z,99329.56
2023-03-03T02:02:58.630Z,99320.84
2023-03-03T02:05:44.261Z,99312.53
2023-03-03T02:08:39.661Z,99312.53
2023-03-03T02:11:26.714Z,99318.06
2023-03-03T02:14:12.702Z,99309.38
2023-03-03T02:17:01.463Z,99309.38
2023-03-03T02:20:04.275Z,99305.38
2023-03-03T02:23:08.758Z,99299.06
2023-03-03T02:25:59.025Z,99303.03
2023-03-03T02:28:46.177Z,99307.78
2023-03-03T02:31:32.604Z,99305.78
2023-03-03T02:34:18.446Z,99302.69
2023-03-03T02:37:04.162Z,99310.56
2023-03-03T02:39:49.392Z,99309.00
2023-03-03T02:42:34.894Z,99313.34
2023-03-03T02:45:20.236Z,99314.94
2023-03-03T02:48:05.993Z,99306.59
2023-03-03T02:50:51.401Z,99306.22
2023-03-03T02:53:37.452Z,99297.13
2023-03-03T02:56:23.149Z,99316.13
2023-03-03T02:59:09.400Z,99319.66
2023-03-03T03:02:00.431Z,99322.88
2023-03-03T03:04:46.751Z,99323.25
2023-03-03T03:07:36.612Z,99315.34
2023-03-03T03:10:21.826Z,99321.66
2023-03-03T03:13:08.639Z,99322.88
2023-03-03T03:15:54.901Z,99331.19
2023-03-03T03:18:40.200Z,99333.19
2023-03-03T03:21:25.717Z,99335.97
2023-03-03T03:24:11.377Z,99335.97
2023-03-03T03:27:01.133Z,99330.06
2023-03-03T03:29:47.126Z,99334.00
2023-03-03T03:32:33.665Z,99329.25
2023-03-03T03:35:19.747Z,99329.25
2023-03-03T03:38:04.977Z,99322.13
2023-03-03T03:40:50.361Z,99332.44
2023-03-03T03:43:36.071Z,99330.47
2023-03-03T03:46:22.338Z,99327.31
2023-03-03T03:49:07.942Z,99318.97
2023-03-03T03:51:53.311Z,99319.38
2023-03-03T03:54:42.129Z,99313.06
2023-03-03T03:57:27.551Z,99312.66
2023-03-03T04:00:13.480Z,99315.44
2023-03-03T04:03:08.676Z,99321.75
2023-03-03T04:05:55.232Z,99317.44
2023-03-03T04:08:40.996Z,99330.88
2023-03-03T04:11:27.783Z,99349.50
2023-03-03T04:14:12.841Z,99343.97
2023-03-03T04:16:58.171Z,99337.63
2023-03-03T04:19:43.324Z,99334.84
2023-03-03T04:22:30.120Z,99346.72
2023-03-03T04:25:17.840Z,99357.06
2023-03-03T04:28:05.568Z,99342.75
2023-03-03T04:30:51.326Z,99345.16
2023-03-03T04:33:38.886Z,99338.41
2023-03-03T04:36:25.057Z,99344.38
2023-03-03T04:39:10.289Z,99359.38
2023-03-03T04:41:57.019Z,99362.59
2023-03-03T04:44:43.483Z,99365.78
2023-03-03T04:47:29.717Z,99361.44
2023-03-03T04:50:15.054Z,99365.78
2023-03-03T04:53:01.509Z,99361.75
2023-03-03T04:55:47.304Z,99369.31
2023-03-03T04:58:33.009Z,99373.25
2023-03-03T05:01:19.657Z,99371.63
2023-03-03T05:04:05.366Z,99376.34
2023-03-03T05:06:50.540Z,99369.19
2023-03-03T05:09:36.279Z,99367.16
2023-03-03T05:12:22.097Z,99377.81
2023-03-03T05:15:07.772Z,99371.03
2023-03-03T05:17:53.462Z,99368.66
2023-03-03T05:20:40.848Z,99375.72
2023-03-03T05:23:26.676Z,99381.66
2023-03-03T05:26:14.074Z,99389.16
2023-03-03T05:28:59.911Z,99377.22
2023-03-03T05:31:45.738Z,99375.97
2023-03-03T05:34:31.204Z,99363.59
2023-03-03T05:37:16.368Z,99373.09
2023-03-03T05:40:01.915Z,99379.78
2023-03-03T05:42:48.774Z,99373.41
2023-03-03T05:45:37.441Z,99363.03
2023-03-03T05:48:23.094Z,99355.44
2023-03-03T05:51:08.509Z,99360.94
2023-03-03T05:53:56.376Z,99383.13
2023-03-03T05:56:43.030Z,99381.44
2023-03-03T05:59:28.635Z,99377.47
2023-03-03T06:02:14.154Z,99380.22
2023-03-03T06:05:00.002Z,99375.88
2023-03-03T06:07:45.247Z,99378.28
2023-03-03T06:10:30.716Z,99368.88
2023-03-03T06:13:18.779Z,99375.25
2023-03-03T06:16:04.328Z,99379.22
2023-03-03T06:18:49.832Z,99375.31
2023-03-03T06:21:35.344Z,99376.50
2023-03-03T06:24:20.669Z,99371.78
2023-03-03T06:27:06.179Z,99372.59
2023-03-03T06:29:51.534Z,99371.47
2023-03-03T06:32:36.868Z,99372.31
2023-03-03T06:35:22.221Z,99377.13
2023-03-03T06:38:07.533Z,99372.78
2023-03-03T06:40:52.952Z,99376.38
2023-03-03T06:43:39.382Z,99381.19
2023-03-03T06:46:24.725Z,99389.94
2023-03-03T06:49:09.977Z,99392.75
2023-03-03T06:51:55.274Z,99398.31
2023-03-03T06:54:41.294Z,99390.41
2023-03-03T06:57:27.811Z,99398.31
2023-03-03T07:00:23.905Z,99399.53
2023-03-03T07:03:13.317Z,99399.53
2023-03-03T07:05:58.734Z,99391.59
2023-03-03T07:08:43.947Z,99414.59
2023-03-03T07:11:31.093Z,99409.47
2023-03-03T07:14:19.860Z,99415.81
2023-03-03T07:17:05.477Z,99429.69
2023-03-03T07:19:50.909Z,99426.53
2023-03-03T07:22:36.560Z,99419.41
2023-03-03T07:25:35.401Z,99419.41
2023-03-03T07:28:28.034Z,99424.16
2023-03-03T07:31:27.396Z,99430.13
2023-03-03T07:34:25.186Z,99420.97
2023-03-03T07:37:17.423Z,99418.22
2023-03-03T07:40:27.060Z,99430.53
2023-03-03T07:43:38.167Z,99441.63
2023-03-03T07:46:43.909Z,99455.13
2023-03-03T07:49:36.874Z,99455.13
2023-03-03T07:52:56.939Z,99457.53
2023-03-03T07:55:42.544Z,99457.53
2023-03-03T07:58:48.084Z,99453.59
2023-03-03T08:01:42.531Z,99457.56
2023-03-03T08:04:50.774Z,99452.00
2023-03-03T08:07:36.756Z,99449.22
2023-03-03T08:10:51.345Z,99445.31
2023-03-03T08:13:43.438Z,99447.28
2023-03-03T08:16:38.147Z,99445.72
2023-03-03T08:19:24.411Z,99447.31
2023-03-03T08:22:16.390Z,99447.31
2023-03-03T08:25:02.493Z,99450.53
2023-03-03T08:27:47.728Z,99460.03
2023-03-03T08:30:32.908Z,99453.72
2023-03-03T08:33:18.618Z,99447.75
2023-03-03T08:36:05.488Z,99440.22
2023-03-03T08:38:51.101Z,99444.97
2023-03-03T08:41:36.475Z,99447.31
2023-03-03T08:44:21.659Z,99443.78
2023-03-03T08:47:07.007Z,99447.31
2023-03-03T08:49:54.444Z,99444.97
2023-03-03T08:52:40.755Z,99446.53
2023-03-03T08:55:26.036Z,99450.53
2023-03-03T08:58:11.820Z,99456.47
2023-03-03T09:00:59.073Z,99460.03
2023-03-03T09:03:45.069Z,99469.56
2023-03-03T09:06:30.581Z,99466.81
2023-03-03T09:09:16.037Z,99463.25
2023-03-03T09:12:15.588Z,99459.66
2023-03-03T09:15:13.457Z,99455.31
2023-03-03T09:18:01.233Z,99462.88
2023-03-03T09:20:48.835Z,99463.66
2023-03-03T09:23:49.549Z,99465.66
2023-03-03T09:26:41.232Z,99477.53
2023-03-03T09:29:29.454Z,99481.88
2023-03-03T09:32:20.652Z,99484.25
2023-03-03T09:35:39.069Z,99489.81
2023-03-03T09:38:31.021Z,99487.03
2023-03-03T09:41:24.076Z,99477.16
2023-03-03T09:44:30.662Z,99491.81
2023-03-03T09:47:22.032Z,99490.25
2023-03-03T09:50:14.032Z,99484.69
2023-03-03T09:53:26.516Z,99496.56
2023-03-03T09:56:34.915Z,99502.91
2023-03-03T09:59:23.239Z,99499.34
2023-03-03T10:02:27.046Z,99504.50
2023-03-03T10:05:28.591Z,99510.84
2023-03-03T10:09:09.560Z,99513.63
2023-03-03T10:12:25.986Z,99506.50
2023-03-03T10:15:36.016Z,99498.97
2023-03-03T10:18:33.403Z,99491.84
2023-03-03T10:21:29.801Z,99487.09
2023-03-03T10:24:40.507Z,99494.63
2023-03-03T10:27:28.851Z,99498.97
2023-03-03T10:30:54.727Z,99504.91
2023-03-03T10:34:00.526Z,99515.63
2023-03-03T10:37:14.197Z,99522.38
2023-03-03T10:40:14.934Z,99522.38
2023-03-03T10:43:30.966Z,99507.69
2023-03-03T10:46:50.710Z,99512.84
2023-03-03T10:49:39.400Z,99505.72
2023-03-03T10:52:34.566Z,99509.28
2023-03-03T10:55:39.367Z,99509.69
2023-03-03T10:58:54.382Z,99508.50
2023-03-03T11:01:52.878Z,99509.28
2023-03-03T11:04:57.683Z,99509.28
2023-03-03T11:08:02.100Z,99501.75
2023-03-03T11:11:18.382Z,99504.91
2023-03-03T11:14:13.774Z,99508.50
2023-03-03T11:17:01.341Z,99508.50
2023-03-03T11:20:02.227Z,99504.13
2023-03-03T11:22:56.073Z,99502.97
2023-03-03T11:26:09.160Z,99500.19
2023-03-03T11:28:54.975Z,99491.03
2023-03-03T11:31:48.222Z,99497.41
2023-03-03T11:34:39.899Z,99491.84
2023-03-03T11:37:44.302Z,99491.03
2023-03-03T11:40:45.146Z,99489.47
2023-03-03T11:43:37.752Z,99485.94
2023-03-03T11:46:34.157Z,99487.09
2023-03-03T11:49:28.809Z,99485.94
2023-03-03T11:52:55.465Z,99483.16
2023-03-03T11:55:45.935Z,99483.16
2023-03-03T11:58:54.147Z,99489.47
2023-03-03T12:01:58.764Z,99486.34
2023-03-03T12:04:51.100Z,99480.78
2023-03-03T12:07:55.161Z,99480.00
2023-03-03T12:11:07.142Z,99485.16
2023-03-03T12:14:06.936Z,99483.56
2023-03-03T12:17:03.247Z,99479.22
2023-03-03T12:20:02.182Z,99480.00
2023-03-03T12:23:07.035Z,99483.19
2023-03-03T12:26:01.995Z,99480.00
2023-03-03T12:28:55.115Z,99480.00
2023-03-03T12:32:21.448Z,99468.13
2023-03-03T12:35:11.067Z,99468.91
2023-03-03T12:38:06.602Z,99473.66
2023-03-03T12:41:04.796Z,99465.75
2023-03-03T12:44:00.001Z,99457.81
2023-03-03T12:47:08.461Z,99455.44
2023-03-03T12:50:12.630Z,99451.88
2023-03-03T12:53:10.364Z,99447.88
2023-03-03T12:56:06.630Z,99446.31
2023-03-03T12:58:52.025Z,99448.31
2023-03-03T13:01:48.900Z,99446.31
2023-03-03T13:05:14.198Z,99441.97
2023-03-03T13:08:22.676Z,99446.31
2023-03-03T13:11:28.663Z,99448.31
2023-03-03T13:14:21.714Z,99453.06
2023-03-03T13:17:25.793Z,99441.19
2023-03-03T13:20:48.806Z,99447.16
2023-03-03T13:24:22.306Z,99449.94
2023-03-03T13:27:15.210Z,99445.94
2023-03-03T13:30:03.755Z,99454.28
2023-03-03T13:32:59.709Z,99444.38
2023-03-03T13:35:48.106Z,99443.19
2023-03-03T13:38:48.304Z,99441.19
2023-03-03T13:41:57.103Z,99441.63
2023-03-03T13:44:46.094Z,99445.94
2023-03-03T13:47:46.127Z,99445.94
2023-03-03T13:50:44.939Z,99445.94
2023-03-03T13:53:44.354Z,99437.63
2023-03-03T13:56:42.059Z,99432.47
2023-03-03T13:59:39.947Z,99433.69
2023-03-03T14:02:50.163Z,99433.28
2023-03-03T14:05:40.612Z,99431.69
2023-03-03T14:08:43.193Z,99424.97
2023-03-03T14:12:14.138Z,99421.81
2023-03-03T14:15:26.319Z,99420.22
2023-03-03T14:18:39.261Z,99414.69
2023-03-03T14:21:35.702Z,99418.66
2023-03-03T14:24:25.205Z,99424.59
2023-03-03T14:27:24.714Z,99416.66
2023-03-03T14:30:22.644Z,99420.16
2023-03-03T14:33:08.280Z,99414.19
2023-03-03T14:35:56.869Z,99400.28
2023-03-03T14:38:46.140Z,99399.44
2023-03-03T14:41:40.994Z,99389.09
2023-03-03T14:44:30.860Z,99392.63
2023-03-03T14:47:27.129Z,99393.78
2023-03-03T14:50:37.997Z,99393.38
2023-03-03T14:53:45.052Z,99387.00
2023-03-03T14:56:34.457Z,99382.19
2023-03-03T14:59:33.890Z,99380.16
2023-03-03T15:02:19.669Z,99390.81
2023-03-03T15:05:17.864Z,99387.19
2023-03-03T15:08:05.667Z,99385.19
2023-03-03T15:10:50.791Z,99385.13
2023-03-03T15:13:36.252Z,99382.66
2023-03-03T15:16:28.182Z,99388.19
2023-03-03T15:19:25.151Z,99383.72
2023-03-03T15:22:19.214Z,99378.13
2023-03-03T15:25:24.130Z,99384.06
2023-03-03T15:28:22.681Z,99382.44
2023-03-03T15:31:25.301Z,99380.78
2023-03-03T15:34:43.398Z,99379.16
2023-03-03T15:37:49.541Z,99374.78
2023-03-03T15:40:48.545Z,99373.94
2023-03-03T15:43:49.843Z,99376.72
2023-03-03T15:46:50.151Z,99375.94
2023-03-03T15:50:10.526Z,99385.44
2023-03-03T15:53:11.779Z,99377.88
2023-03-03T15:56:18.945Z,99380.22
2023-03-03T15:59:26.480Z,99371.06
2023-03-03T16:02:21.677Z,99377.38
2023-03-03T16:05:24.065Z,99390.13
2023-03-03T16:08:17.015Z,99387.72
2023-03-03T16:11:20.645Z,99393.25
2023-03-03T16:14:39.894Z,99392.88
2023-03-03T16:17:47.197Z,99392.50
2023-03-03T16:20:56.669Z,99389.75
2023-03-03T16:24:13.027Z,99387.84
2023-03-03T16:27:10.041Z,99387.09
2023-03-03T16:30:06.696Z,99385.53
2023-03-03T16:33:14.521Z,99379.22
2023-03-03T16:36:12.365Z,99392.38
2023-03-03T16:39:25.918Z,99397.19
2023-03-03T16:42:29.693Z,99394.47
2023-03-03T16:45:23.083Z,99408.41
2023-03-03T16:48:22.904Z,99403.69
2023-03-03T16:51:52.097Z,99395.81
2023-03-03T16:54:54.355Z,99393.88
2023-03-03T16:58:16.951Z,99387.56
2023-03-03T17:01:14.908Z,99393.13
2023-03-03T17:04:15.436Z,99389.97
2023-03-03T17:07:05.597Z,99390.81
2023-03-03T17:10:32.235Z,99387.66
2023-03-03T17:13:59.265Z,99396.41
2023-03-03T17:16:58.556Z,99395.63
2023-03-03T17:20:06.638Z,99401.56
2023-03-03T17:23:03.282Z,99396.44
2023-03-03T17:25:51.530Z,99396.06
2023-03-03T17:28:46.078Z,99403.59
2023-03-03T17:31:59.470Z,99401.25
2023-03-03T17:35:12.843Z,99390.53
2023-03-03T17:38:36.672Z,99402.06
2023-03-03T17:41:36.546Z,99405.25
2023-03-03T17:44:50.670Z,99399.72
2023-03-03T17:47:35.835Z,99406.81
2023-03-03T17:50:39.914Z,99413.16
2023-03-03T17:53:31.384Z,99406.44
2023-03-03T17:56:16.928Z,99413.16
2023-03-03T17:59:29.522Z,99406.41
2023-03-03T18:02:40.804Z,99401.25
2023-03-03T18:05:37.245Z,99397.25
2023-03-03T18:08:34.748Z,99409.09
2023-03-03T18:11:39.475Z,99412.66
2023-03-03T18:14:42.137Z,99404.72
2023-03-03T18:17:33.578Z,99409.03
2023-03-03T18:20:22.291Z,99408.22
2023-03-03T18:23:42.020Z,99421.66
2023-03-03T18:26:42.073Z,99414.09
2023-03-03T18:29:29.078Z,99420.38
2023-03-03T18:32:21.843Z,99419.97
2023-03-03T18:35:34.307Z,99413.59
2023-03-03T18:38:26.715Z,99416.72
2023-03-03T18:41:18.308Z,99408.78
2023-03-03T18:44:25.201Z,99425.38
2023-03-03T18:47:11.461Z,99414.59
2023-03-03T18:50:29.963Z,99420.53
2023-03-03T18:53:15.985Z,99417.75
2023-03-03T18:56:03.907Z,99424.09
2023-03-03T18:58:51.227Z,99420.13
2023-03-03T19:01:43.889Z,99426.38
2023-03-03T19:04:36.935Z,99423.19
2023-03-03T19:07:32.865Z,99417.25
2023-03-03T19:10:22.596Z,99419.16
2023-03-03T19:13:32.670Z,99411.56
2023-03-03T19:16:24.605Z,99419.50
2023-03-03T19:19:16.352Z,99415.50
2023-03-03T19:22:24.681Z,99415.13
2023-03-03T19:25:25.319Z,99419.50
2023-03-03T19:32:04.303Z,99418.66
2023-03-03T19:34:55.671Z,99414.31
2023-03-03T19:38:10.356Z,99418.66
2023-03-03T19:41:23.046Z,99425.44
2023-03-03T19:44:36.258Z,99415.88
2023-03-03T19:47:44.909Z,99409.09
2023-03-03T19:50:35.465Z,99415.03
2023-03-03T19:53:22.567Z,99421.03
2023-03-03T19:56:20.034Z,99416.25
2023-03-03T19:59:31.859Z,99422.53
2023-03-03T20:02:39.568Z,99418.53
2023-03-03T20:05:48.650Z,99414.94
2023-03-03T20:08:47.948Z,99416.50
2023-03-03T20:11:56.347Z,99413.72
2023-03-03T20:14:54.626Z,99410.53
2023-03-03T20:17:54.769Z,99409.31
2023-03-03T20:20:53.568Z,99406.53
2023-03-03T20:23:53.141Z,99409.69
2023-03-03T20:27:05.024Z,99406.13
2023-03-03T20:30:08.465Z,99401.75
2023-03-03T20:33:01.387Z,99405.28
2023-03-03T20:36:05.635Z,99397.78
2023-03-03T20:39:02.018Z,99405.34
2023-03-03T20:42:06.108Z,99395.41
2023-03-03T20:45:13.733Z,99392.22
2023-03-03T20:48:22.530Z,99390.63
2023-03-03T20:51:23.804Z,99382.66
2023-03-03T20:54:53.551Z,99393.84
2023-03-03T20:57:56.201Z,99384.75
2023-03-03T21:00:59.059Z,99381.97
2023-03-03T21:03:45.652Z,99387.53
2023-03-03T21:06:40.960Z,99384.31
2023-03-03T21:09:33.105Z,99384.78
2023-03-03T21:12:30.676Z,99376.09
2023-03-03T21:15:38.311Z,99374.94
2023-03-03T21:18:26.129Z,99362.72
2023-03-03T21:21:11.685Z,99367.16
2023-03-03T21:23:59.094Z,99362.50
2023-03-03T21:26:57.871Z,99361.06
2023-03-03T21:29:43.964Z,99361.09
2023-03-03T21:32:45.092Z,99354.00
2023-03-03T21:35:30.275Z,99354.88
2023-03-03T21:38:33.152Z,99358.06
2023-03-03T21:41:19.864Z,99355.69
2023-03-03T21:44:36.140Z,99352.91
2023-03-03T21:47:23.510Z,99346.56
2023-03-03T21:50:09.563Z,99346.97
2023-03-03T21:52:56.215Z,99346.97
2023-03-03T21:58:29.941Z,99342.66
2023-03-03T22:04:01.748Z,99341.88
2023-03-03T22:06:47.406Z,99344.69
2023-03-03T22:09:32.890Z,99342.75
2023-03-03T22:12:18.527Z,99345.56
2023-03-03T22:15:04.328Z,99346.41
2023-03-03T22:17:50.050Z,99352.75
2023-03-03T22:20:35.293Z,99347.59
2023-03-03T22:23:20.774Z,99344.81
2023-03-03T22:26:06.282Z,99339.34
2023-03-03T22:28:51.776Z,99340.91
2023-03-03T22:31:37.387Z,99337.78
2023-03-03T22:34:22.848Z,99338.56
2023-03-03T22:37:08.215Z,99330.63
2023-03-03T22:39:53.423Z,99337.03
2023-03-03T22:42:38.832Z,99330.69
2023-03-03T22:45:24.070Z,99331.09
2023-03-03T22:48:09.232Z,99328.75
2023-03-03T22:50:55.167Z,99318.84
2023-03-03T22:53:40.266Z,99316.44
2023-03-03T22:56:25.675Z,99322.41
2023-03-03T22:59:10.922Z,99317.69
2023-03-03T23:01:56.251Z,99317.69
2023-03-03T23:04:41.737Z,99313.78
2023-03-03T23:07:29.298Z,99306.63
2023-03-03T23:10:14.850Z,99310.19
2023-03-03T23:13:00.254Z,99305.84
2023-03-03T23:15:45.482Z,99294.75
2023-03-03T23:18:30.871Z,99286.06
2023-03-03T23:21:17.378Z,99286.47
2023-03-03T23:24:02.598Z,99283.31
2023-03-03T23:26:51.721Z,99286.09
2023-03-03T23:29:38.199Z,99280.97
2023-03-03T23:32:26.781Z,99280.59
2023-03-03T23:35:12.917Z,99275.06
2023-03-03T23:37:58.203Z,99281.78
2023-03-03T23:40:44.224Z,99277.88
2023-03-03T23:43:29.653Z,99285.41
2023-03-03T23:46:15.292Z,99281.47
2023-03-03T23:49:02.150Z,99274.69
2023-03-03T23:51:47.333Z,99277.84
2023-03-03T23:54:32.751Z,99273.84
2023-03-03T23:57:19.186Z,99274.28
